Ефремов

Карта отелей и гостиниц, располагающихся рядом с аэропортом Ефремов :

Ефремов Тульская область 53° 6' 51.5988" N, 38° 14' 43.5588" E
Ефремов Тульская область 53° 6' 51.5988" N, 38° 14' 43.5588" E
Код аэродрома ИКАО
XUWE
Код аэродрома RU
ЬУВЕ
Координаты
N53.11433° E038.24543°
Превышение над уровнем моря
220
Основная полоса
01/19
Курс магнитный
004,8/184,8
Длина основной ВПП
2500
Ширина основной ВПП
49
Покрытие основной ВПП
Твёрдое (бетон)
Освещение ВПП
Нет
Тип: 
Аэродром
Класс аэродрома: 
Принадлежность: 
МО
Статус: 
Недействующий
Сайт: 
E-mail аэродрома: 
Страна: 
Россия
Регион: 
Тульская область
Город: 
Дополнительная информация: 
Оператор: ВКС России. Построен в начале 1950-х годов. Здесь базировался 191-й ИАП Московского округа ПВО МО СССР. Изначально на вооружении состояли истребители-перехватчики: МИГ-17, МИГ-19. В 1963 - Су-9, затем, в 1965 г, были получены истребители-перехватчики Су-11. В первой половине 1980-х годов в 191-й ИАП поступили 38 самолётов МиГ-23П, которые и составляли вооружение авиаполка вплоть до момента его расформирования в 1994 г. Был оборудован ДПРМ :305-МЦ, БПРМ: 630-М.

Найти трансфер

С помощью этой формы Вы можете найти трансфер из аэропорта Ефремов в город, аэропорт или вокзал:

Карта места

Javascript is required to view this map.

Погода в аэропортах:

Авиационная погода в Архангельске

Регион: 
Погода METAR: 
ULAA 050800Z 29005MPS 250V330 9999 -SHRA BKN014CB 12/10 Q1014 R26/290060 NOSIG RMK QFE759/1012
Время наблюдения
2021-08-05T08:00:00Z
Температура C
12.0
Точка росы
10.0
Направление ветра
290
Скорость ветра (узлы)
10
Метео видимость
6.21
Явления погоды
-SHRA
Условия полета
MVFR
Аэропорт подробнее: 

Авиационная погода в Якутске

Регион: 
Погода METAR: 
UEEE 050800Z 01003MPS 5000 FU NSC 26/06 Q1003 R23L/09//70 NOSIG RMK QFE743
Время наблюдения
2021-08-05T08:00:00Z
Температура C
26.0
Точка росы
6.0
Направление ветра
10
Скорость ветра (узлы)
6
Метео видимость
3.11
Явления погоды
FU
Условия полета
MVFR
Аэропорт подробнее: 

Авиационная погода в Мирном

Регион: 
Погода METAR: 
UERR 050800Z 06003MPS 0600 HZ VV005 21/13 Q1005 R25/CLRD60 NOSIG RMK QBB150 QFE723/0964
Время наблюдения
2021-08-05T08:00:00Z
Температура C
21.0
Точка росы
13.0
Направление ветра
60
Скорость ветра (узлы)
6
Метео видимость
0.37
Явления погоды
HZ
Условия полета
LIFR
Аэропорт подробнее: 

Авиационная погода в Сургуте

Регион: 
Погода METAR: 
USRR 050900Z 36002MPS 320V040 2100 R07/1900N BR BKN022 19/18 Q1012 R07/CLRD60 TEMPO 1000 BR RMK OBST OBSC QFE754
Время наблюдения
2021-08-05T09:00:00Z
Температура C
19.0
Точка росы
18.0
Направление ветра
360
Скорость ветра (узлы)
4
Метео видимость
1.3
Явления погоды
BR
Условия полета
IFR
Аэропорт подробнее: